sensor_id;sensor_type;location;lat;lon;timestamp;P1;durP1;ratioP1;P2;durP2;ratioP2
4921;SDS011;16625;53.624;10.106;2023-07-13T00:01:46;8.40;;;4.70;;
4921;SDS011;16625;53.624;10.106;2023-07-13T00:04:15;8.53;;;4.23;;
4921;SDS011;16625;53.624;10.106;2023-07-13T00:06:42;9.20;;;5.03;;
4921;SDS011;16625;53.624;10.106;2023-07-13T00:09:10;14.57;;;5.10;;
4921;SDS011;16625;53.624;10.106;2023-07-13T00:11:38;7.20;;;4.80;;
4921;SDS011;16625;53.624;10.106;2023-07-13T00:14:05;7.53;;;4.63;;
4921;SDS011;16625;53.624;10.106;2023-07-13T00:16:34;7.63;;;4.40;;
4921;SDS011;16625;53.624;10.106;2023-07-13T00:19:03;10.10;;;5.20;;
4921;SDS011;16625;53.624;10.106;2023-07-13T00:21:29;6.80;;;4.07;;
4921;SDS011;16625;53.624;10.106;2023-07-13T00:23:56;9.00;;;4.40;;
4921;SDS011;16625;53.624;10.106;2023-07-13T00:26:23;10.83;;;4.70;;
4921;SDS011;16625;53.624;10.106;2023-07-13T00:28:50;8.67;;;4.93;;
4921;SDS011;16625;53.624;10.106;2023-07-13T00:31:17;9.73;;;5.20;;
4921;SDS011;16625;53.624;10.106;2023-07-13T00:33:45;19.93;;;4.20;;
4921;SDS011;16625;53.624;10.106;2023-07-13T00:36:12;7.53;;;5.10;;
4921;SDS011;16625;53.624;10.106;2023-07-13T00:38:39;8.40;;;5.20;;
4921;SDS011;16625;53.624;10.106;2023-07-13T00:41:07;5.47;;;4.07;;
4921;SDS011;16625;53.624;10.106;2023-07-13T00:43:34;7.37;;;4.63;;
4921;SDS011;16625;53.624;10.106;2023-07-13T00:48:52;6.73;;;4.10;;
4921;SDS011;16625;53.624;10.106;2023-07-13T00:51:23;6.03;;;4.90;;
4921;SDS011;16625;53.624;10.106;2023-07-13T00:53:53;11.10;;;4.70;;
4921;SDS011;16625;53.624;10.106;2023-07-13T00:56:22;7.10;;;4.80;;
4921;SDS011;16625;53.624;10.106;2023-07-13T00:58:50;7.67;;;4.50;;
4921;SDS011;16625;53.624;10.106;2023-07-13T01:01:17;6.07;;;4.63;;
4921;SDS011;16625;53.624;10.106;2023-07-13T01:03:44;7.13;;;4.87;;
4921;SDS011;16625;53.624;10.106;2023-07-13T01:06:13;8.97;;;6.00;;
4921;SDS011;16625;53.624;10.106;2023-07-13T01:08:42;5.53;;;4.33;;
4921;SDS011;16625;53.624;10.106;2023-07-13T01:11:09;11.30;;;4.90;;
4921;SDS011;16625;53.624;10.106;2023-07-13T01:13:36;7.50;;;4.80;;
4921;SDS011;16625;53.624;10.106;2023-07-13T01:16:04;6.60;;;4.30;;
4921;SDS011;16625;53.624;10.106;2023-07-13T01:18:39;6.70;;;5.17;;
4921;SDS011;16625;53.624;10.106;2023-07-13T01:21:07;7.03;;;4.73;;
4921;SDS011;16625;53.624;10.106;2023-07-13T01:23:34;7.47;;;5.10;;
4921;SDS011;16625;53.624;10.106;2023-07-13T01:26:01;12.63;;;4.97;;
4921;SDS011;16625;53.624;10.106;2023-07-13T01:28:28;7.40;;;4.43;;
4921;SDS011;16625;53.624;10.106;2023-07-13T01:30:56;9.73;;;4.33;;
4921;SDS011;16625;53.624;10.106;2023-07-13T01:33:25;5.37;;;4.50;;
4921;SDS011;16625;53.624;10.106;2023-07-13T01:35:52;8.70;;;4.43;;
4921;SDS011;16625;53.624;10.106;2023-07-13T01:38:21;7.87;;;4.50;;
4921;SDS011;16625;53.624;10.106;2023-07-13T01:40:49;8.50;;;4.70;;
4921;SDS011;16625;53.624;10.106;2023-07-13T01:43:16;6.23;;;4.30;;
4921;SDS011;16625;53.624;10.106;2023-07-13T01:45:44;12.00;;;4.80;;
4921;SDS011;16625;53.624;10.106;2023-07-13T01:48:11;6.87;;;4.50;;
4921;SDS011;16625;53.624;10.106;2023-07-13T01:50:39;8.53;;;4.13;;
4921;SDS011;16625;53.624;10.106;2023-07-13T01:53:06;7.23;;;4.17;;
4921;SDS011;16625;53.624;10.106;2023-07-13T01:55:35;20.70;;;4.83;;
4921;SDS011;16625;53.624;10.106;2023-07-13T01:58:03;8.03;;;5.03;;
4921;SDS011;16625;53.624;10.106;2023-07-13T02:00:30;9.20;;;5.30;;
4921;SDS011;16625;53.624;10.106;2023-07-13T02:02:57;7.80;;;5.07;;
4921;SDS011;16625;53.624;10.106;2023-07-13T02:05:24;12.53;;;6.13;;
4921;SDS011;16625;53.624;10.106;2023-07-13T02:07:51;5.83;;;4.23;;
4921;SDS011;16625;53.624;10.106;2023-07-13T02:10:19;9.20;;;4.87;;
4921;SDS011;16625;53.624;10.106;2023-07-13T02:12:47;8.40;;;4.87;;
4921;SDS011;16625;53.624;10.106;2023-07-13T02:15:15;9.10;;;5.30;;
4921;SDS011;16625;53.624;10.106;2023-07-13T02:17:43;8.13;;;5.33;;
4921;SDS011;16625;53.624;10.106;2023-07-13T02:20:10;13.10;;;5.30;;
4921;SDS011;16625;53.624;10.106;2023-07-13T02:22:37;10.67;;;5.10;;
4921;SDS011;16625;53.624;10.106;2023-07-13T02:25:04;10.70;;;5.73;;
4921;SDS011;16625;53.624;10.106;2023-07-13T02:27:31;12.57;;;5.90;;
4921;SDS011;16625;53.624;10.106;2023-07-13T02:30:00;8.63;;;5.13;;
4921;SDS011;16625;53.624;10.106;2023-07-13T02:32:27;9.70;;;5.87;;
4921;SDS011;16625;53.624;10.106;2023-07-13T02:34:54;15.10;;;6.70;;
4921;SDS011;16625;53.624;10.106;2023-07-13T02:37:21;13.63;;;5.20;;
4921;SDS011;16625;53.624;10.106;2023-07-13T02:39:48;12.13;;;6.20;;
4921;SDS011;16625;53.624;10.106;2023-07-13T02:42:15;13.03;;;6.50;;
4921;SDS011;16625;53.624;10.106;2023-07-13T02:44:42;8.77;;;6.37;;
4921;SDS011;16625;53.624;10.106;2023-07-13T02:47:10;8.40;;;6.23;;
4921;SDS011;16625;53.624;10.106;2023-07-13T02:49:38;9.60;;;6.03;;
4921;SDS011;16625;53.624;10.106;2023-07-13T02:52:05;9.70;;;6.90;;
4921;SDS011;16625;53.624;10.106;2023-07-13T02:54:32;13.77;;;6.30;;
4921;SDS011;16625;53.624;10.106;2023-07-13T02:56:59;10.30;;;6.40;;
4921;SDS011;16625;53.624;10.106;2023-07-13T02:59:26;8.77;;;6.43;;
4921;SDS011;16625;53.624;10.106;2023-07-13T03:01:53;8.73;;;7.03;;
4921;SDS011;16625;53.624;10.106;2023-07-13T03:04:22;13.80;;;6.90;;
4921;SDS011;16625;53.624;10.106;2023-07-13T03:06:49;10.27;;;7.20;;
4921;SDS011;16625;53.624;10.106;2023-07-13T03:09:16;10.47;;;7.80;;
4921;SDS011;16625;53.624;10.106;2023-07-13T03:11:43;13.10;;;7.47;;
4921;SDS011;16625;53.624;10.106;2023-07-13T03:14:10;13.77;;;6.33;;
4921;SDS011;16625;53.624;10.106;2023-07-13T03:16:37;15.80;;;8.10;;
4921;SDS011;16625;53.624;10.106;2023-07-13T03:19:04;9.97;;;7.50;;
4921;SDS011;16625;53.624;10.106;2023-07-13T03:21:32;12.00;;;7.73;;
4921;SDS011;16625;53.624;10.106;2023-07-13T03:23:59;13.23;;;8.37;;
4921;SDS011;16625;53.624;10.106;2023-07-13T03:26:26;10.93;;;7.90;;
4921;SDS011;16625;53.624;10.106;2023-07-13T03:28:53;13.40;;;6.77;;
4921;SDS011;16625;53.624;10.106;2023-07-13T03:31:21;14.27;;;8.27;;
4921;SDS011;16625;53.624;10.106;2023-07-13T03:33:49;12.20;;;7.10;;
4921;SDS011;16625;53.624;10.106;2023-07-13T03:36:17;9.90;;;7.70;;
4921;SDS011;16625;53.624;10.106;2023-07-13T03:38:48;10.80;;;8.50;;
4921;SDS011;16625;53.624;10.106;2023-07-13T03:41:16;18.90;;;8.33;;
4921;SDS011;16625;53.624;10.106;2023-07-13T03:43:43;12.20;;;8.03;;
4921;SDS011;16625;53.624;10.106;2023-07-13T03:46:10;13.90;;;8.10;;
4921;SDS011;16625;53.624;10.106;2023-07-13T03:48:37;10.50;;;8.00;;
4921;SDS011;16625;53.624;10.106;2023-07-13T03:51:06;13.80;;;8.60;;
4921;SDS011;16625;53.624;10.106;2023-07-13T03:53:33;9.60;;;7.60;;
4921;SDS011;16625;53.624;10.106;2023-07-13T03:56:02;7.97;;;7.17;;
4921;SDS011;16625;53.624;10.106;2023-07-13T03:58:30;12.70;;;7.83;;
4921;SDS011;16625;53.624;10.106;2023-07-13T04:00:58;10.93;;;7.97;;
4921;SDS011;16625;53.624;10.106;2023-07-13T04:03:26;12.63;;;7.60;;
4921;SDS011;16625;53.624;10.106;2023-07-13T04:05:54;12.23;;;7.20;;
4921;SDS011;16625;53.624;10.106;2023-07-13T04:08:24;15.33;;;7.67;;
4921;SDS011;16625;53.624;10.106;2023-07-13T04:10:52;13.40;;;8.07;;
4921;SDS011;16625;53.624;10.106;2023-07-13T04:13:20;15.27;;;7.10;;
4921;SDS011;16625;53.624;10.106;2023-07-13T04:15:47;15.10;;;8.17;;
4921;SDS011;16625;53.624;10.106;2023-07-13T04:18:14;13.27;;;8.10;;
4921;SDS011;16625;53.624;10.106;2023-07-13T04:20:41;13.50;;;7.90;;
4921;SDS011;16625;53.624;10.106;2023-07-13T04:23:08;25.30;;;8.80;;
4921;SDS011;16625;53.624;10.106;2023-07-13T04:25:35;13.10;;;8.50;;
4921;SDS011;16625;53.624;10.106;2023-07-13T04:28:03;14.10;;;7.47;;
4921;SDS011;16625;53.624;10.106;2023-07-13T04:30:32;12.20;;;7.97;;
4921;SDS011;16625;53.624;10.106;2023-07-13T04:32:59;11.90;;;7.67;;
4921;SDS011;16625;53.624;10.106;2023-07-13T04:35:26;10.03;;;6.30;;
4921;SDS011;16625;53.624;10.106;2023-07-13T04:37:53;13.53;;;7.70;;
4921;SDS011;16625;53.624;10.106;2023-07-13T04:40:20;16.73;;;7.33;;
4921;SDS011;16625;53.624;10.106;2023-07-13T04:42:47;10.70;;;6.90;;
4921;SDS011;16625;53.624;10.106;2023-07-13T04:45:14;9.60;;;6.90;;
4921;SDS011;16625;53.624;10.106;2023-07-13T04:47:43;33.80;;;8.00;;
4921;SDS011;16625;53.624;10.106;2023-07-13T04:50:12;21.43;;;7.00;;
4921;SDS011;16625;53.624;10.106;2023-07-13T04:52:45;10.13;;;7.13;;
4921;SDS011;16625;53.624;10.106;2023-07-13T04:55:12;16.40;;;7.63;;
4921;SDS011;16625;53.624;10.106;2023-07-13T04:57:39;19.33;;;7.90;;
4921;SDS011;16625;53.624;10.106;2023-07-13T05:00:06;9.00;;;7.07;;
4921;SDS011;16625;53.624;10.106;2023-07-13T05:02:34;19.50;;;9.80;;
4921;SDS011;16625;53.624;10.106;2023-07-13T05:05:03;14.97;;;7.33;;
4921;SDS011;16625;53.624;10.106;2023-07-13T05:07:30;15.07;;;7.43;;
4921;SDS011;16625;53.624;10.106;2023-07-13T05:09:58;14.97;;;7.43;;
4921;SDS011;16625;53.624;10.106;2023-07-13T05:12:25;16.63;;;7.40;;
4921;SDS011;16625;53.624;10.106;2023-07-13T05:14:51;16.73;;;6.63;;
4921;SDS011;16625;53.624;10.106;2023-07-13T05:17:19;14.63;;;7.80;;
4921;SDS011;16625;53.624;10.106;2023-07-13T05:19:46;12.90;;;6.40;;
4921;SDS011;16625;53.624;10.106;2023-07-13T05:22:14;17.67;;;7.27;;
4921;SDS011;16625;53.624;10.106;2023-07-13T05:24:41;7.27;;;6.33;;
4921;SDS011;16625;53.624;10.106;2023-07-13T05:27:08;14.27;;;6.40;;
4921;SDS011;16625;53.624;10.106;2023-07-13T05:29:35;11.10;;;7.00;;
4921;SDS011;16625;53.624;10.106;2023-07-13T05:32:01;15.07;;;6.60;;
4921;SDS011;16625;53.624;10.106;2023-07-13T05:34:29;18.43;;;6.80;;
4921;SDS011;16625;53.624;10.106;2023-07-13T05:36:56;14.63;;;6.33;;
4921;SDS011;16625;53.624;10.106;2023-07-13T05:39:24;14.27;;;6.37;;
4921;SDS011;16625;53.624;10.106;2023-07-13T05:41:52;21.80;;;7.47;;
4921;SDS011;16625;53.624;10.106;2023-07-13T05:44:19;7.67;;;5.97;;
4921;SDS011;16625;53.624;10.106;2023-07-13T05:46:46;11.83;;;6.47;;
4921;SDS011;16625;53.624;10.106;2023-07-13T05:49:13;16.97;;;5.53;;
4921;SDS011;16625;53.624;10.106;2023-07-13T05:51:40;12.03;;;5.03;;
4921;SDS011;16625;53.624;10.106;2023-07-13T05:54:07;14.20;;;5.50;;
4921;SDS011;16625;53.624;10.106;2023-07-13T05:56:36;10.10;;;4.53;;
4921;SDS011;16625;53.624;10.106;2023-07-13T05:59:03;23.47;;;5.50;;
4921;SDS011;16625;53.624;10.106;2023-07-13T06:01:30;13.03;;;4.40;;
4921;SDS011;16625;53.624;10.106;2023-07-13T06:03:57;18.70;;;5.23;;
4921;SDS011;16625;53.624;10.106;2023-07-13T06:06:24;14.43;;;5.27;;
4921;SDS011;16625;53.624;10.106;2023-07-13T06:08:51;22.80;;;4.83;;
4921;SDS011;16625;53.624;10.106;2023-07-13T06:11:19;17.07;;;6.00;;
4921;SDS011;16625;53.624;10.106;2023-07-13T06:13:49;11.93;;;4.60;;
4921;SDS011;16625;53.624;10.106;2023-07-13T06:16:16;13.97;;;5.40;;
4921;SDS011;16625;53.624;10.106;2023-07-13T06:18:43;7.97;;;4.10;;
4921;SDS011;16625;53.624;10.106;2023-07-13T06:21:11;13.10;;;4.90;;
4921;SDS011;16625;53.624;10.106;2023-07-13T06:23:40;18.73;;;5.10;;
4921;SDS011;16625;53.624;10.106;2023-07-13T06:26:07;24.30;;;6.20;;
4921;SDS011;16625;53.624;10.106;2023-07-13T06:28:35;11.97;;;4.33;;
4921;SDS011;16625;53.624;10.106;2023-07-13T06:31:06;6.97;;;4.20;;
4921;SDS011;16625;53.624;10.106;2023-07-13T06:33:33;13.43;;;4.70;;
4921;SDS011;16625;53.624;10.106;2023-07-13T06:36:00;10.07;;;4.47;;
4921;SDS011;16625;53.624;10.106;2023-07-13T06:38:27;12.30;;;3.53;;
4921;SDS011;16625;53.624;10.106;2023-07-13T06:40:54;12.50;;;4.97;;
4921;SDS011;16625;53.624;10.106;2023-07-13T06:43:21;14.50;;;4.50;;
4921;SDS011;16625;53.624;10.106;2023-07-13T06:45:49;12.07;;;5.17;;
4921;SDS011;16625;53.624;10.106;2023-07-13T06:48:18;14.57;;;4.30;;
4921;SDS011;16625;53.624;10.106;2023-07-13T06:50:45;11.37;;;5.10;;
4921;SDS011;16625;53.624;10.106;2023-07-13T06:53:14;7.90;;;3.50;;
4921;SDS011;16625;53.624;10.106;2023-07-13T06:55:43;10.27;;;5.00;;
4921;SDS011;16625;53.624;10.106;2023-07-13T06:58:10;8.33;;;3.93;;
4921;SDS011;16625;53.624;10.106;2023-07-13T07:00:38;9.63;;;3.83;;
4921;SDS011;16625;53.624;10.106;2023-07-13T07:03:05;18.60;;;4.30;;
4921;SDS011;16625;53.624;10.106;2023-07-13T07:05:34;8.13;;;3.70;;
4921;SDS011;16625;53.624;10.106;2023-07-13T07:08:01;16.37;;;4.20;;
4921;SDS011;16625;53.624;10.106;2023-07-13T07:10:29;11.63;;;3.73;;
4921;SDS011;16625;53.624;10.106;2023-07-13T07:12:56;13.53;;;3.40;;
4921;SDS011;16625;53.624;10.106;2023-07-13T07:15:25;11.93;;;3.67;;
4921;SDS011;16625;53.624;10.106;2023-07-13T07:17:52;14.37;;;4.17;;
4921;SDS011;16625;53.624;10.106;2023-07-13T07:20:19;6.10;;;3.40;;
4921;SDS011;16625;53.624;10.106;2023-07-13T07:22:47;18.60;;;4.00;;
4921;SDS011;16625;53.624;10.106;2023-07-13T07:25:14;5.90;;;3.33;;
4921;SDS011;16625;53.624;10.106;2023-07-13T07:27:41;12.63;;;3.97;;
4921;SDS011;16625;53.624;10.106;2023-07-13T07:30:09;11.43;;;3.73;;
4921;SDS011;16625;53.624;10.106;2023-07-13T07:32:36;14.03;;;3.50;;
4921;SDS011;16625;53.624;10.106;2023-07-13T07:35:03;6.50;;;3.50;;
4921;SDS011;16625;53.624;10.106;2023-07-13T07:37:31;10.63;;;4.40;;
4921;SDS011;16625;53.624;10.106;2023-07-13T07:39:59;8.73;;;3.50;;
4921;SDS011;16625;53.624;10.106;2023-07-13T07:42:26;19.20;;;4.23;;
4921;SDS011;16625;53.624;10.106;2023-07-13T07:44:53;5.67;;;2.80;;
4921;SDS011;16625;53.624;10.106;2023-07-13T07:47:20;8.73;;;3.27;;
4921;SDS011;16625;53.624;10.106;2023-07-13T07:49:48;7.43;;;3.60;;
4921;SDS011;16625;53.624;10.106;2023-07-13T07:52:15;11.43;;;4.20;;
4921;SDS011;16625;53.624;10.106;2023-07-13T07:54:41;6.97;;;3.27;;
4921;SDS011;16625;53.624;10.106;2023-07-13T07:57:10;19.00;;;3.70;;
4921;SDS011;16625;53.624;10.106;2023-07-13T07:59:37;7.93;;;2.87;;
4921;SDS011;16625;53.624;10.106;2023-07-13T08:02:04;5.07;;;2.93;;
4921;SDS011;16625;53.624;10.106;2023-07-13T08:04:31;8.37;;;3.87;;
4921;SDS011;16625;53.624;10.106;2023-07-13T08:06:58;7.97;;;3.50;;
4921;SDS011;16625;53.624;10.106;2023-07-13T08:09:27;10.77;;;3.13;;
4921;SDS011;16625;53.624;10.106;2023-07-13T08:11:54;10.60;;;3.77;;
4921;SDS011;16625;53.624;10.106;2023-07-13T08:14:23;17.90;;;3.70;;
4921;SDS011;16625;53.624;10.106;2023-07-13T08:16:50;14.40;;;4.70;;
4921;SDS011;16625;53.624;10.106;2023-07-13T08:19:16;12.67;;;3.20;;
4921;SDS011;16625;53.624;10.106;2023-07-13T08:21:43;7.57;;;3.53;;
4921;SDS011;16625;53.624;10.106;2023-07-13T08:24:13;13.70;;;3.50;;
4921;SDS011;16625;53.624;10.106;2023-07-13T08:26:40;6.80;;;2.40;;
4921;SDS011;16625;53.624;10.106;2023-07-13T08:29:06;5.10;;;2.93;;
4921;SDS011;16625;53.624;10.106;2023-07-13T08:31:35;14.70;;;3.03;;
4921;SDS011;16625;53.624;10.106;2023-07-13T08:34:01;4.97;;;3.30;;
4921;SDS011;16625;53.624;10.106;2023-07-13T08:36:28;8.90;;;3.03;;
4921;SDS011;16625;53.624;10.106;2023-07-13T08:38:55;6.83;;;2.73;;
4921;SDS011;16625;53.624;10.106;2023-07-13T08:41:22;11.90;;;2.47;;
4921;SDS011;16625;53.624;10.106;2023-07-13T08:43:50;7.93;;;2.90;;
4921;SDS011;16625;53.624;10.106;2023-07-13T08:46:23;10.33;;;3.20;;
4921;SDS011;16625;53.624;10.106;2023-07-13T08:48:53;8.37;;;3.47;;
4921;SDS011;16625;53.624;10.106;2023-07-13T08:51:26;8.77;;;3.17;;
4921;SDS011;16625;53.624;10.106;2023-07-13T08:53:58;7.10;;;2.80;;
4921;SDS011;16625;53.624;10.106;2023-07-13T08:56:28;11.00;;;3.00;;
4921;SDS011;16625;53.624;10.106;2023-07-13T08:58:56;17.43;;;2.73;;
4921;SDS011;16625;53.624;10.106;2023-07-13T09:01:25;9.97;;;2.73;;
4921;SDS011;16625;53.624;10.106;2023-07-13T09:03:59;5.80;;;2.70;;
4921;SDS011;16625;53.624;10.106;2023-07-13T09:06:31;6.47;;;3.10;;
4921;SDS011;16625;53.624;10.106;2023-07-13T09:09:10;7.37;;;2.80;;
4921;SDS011;16625;53.624;10.106;2023-07-13T09:11:46;9.17;;;2.73;;
4921;SDS011;16625;53.624;10.106;2023-07-13T09:14:27;5.57;;;3.03;;
4921;SDS011;16625;53.624;10.106;2023-07-13T09:17:02;4.83;;;2.90;;
4921;SDS011;16625;53.624;10.106;2023-07-13T09:19:32;8.40;;;2.97;;
4921;SDS011;16625;53.624;10.106;2023-07-13T09:22:01;4.73;;;2.50;;
4921;SDS011;16625;53.624;10.106;2023-07-13T09:24:36;6.73;;;2.17;;
4921;SDS011;16625;53.624;10.106;2023-07-13T09:27:08;11.23;;;2.73;;
4921;SDS011;16625;53.624;10.106;2023-07-13T09:29:42;7.03;;;2.50;;
4921;SDS011;16625;53.624;10.106;2023-07-13T09:32:13;8.13;;;2.57;;
4921;SDS011;16625;53.624;10.106;2023-07-13T09:34:51;7.13;;;3.37;;
4921;SDS011;16625;53.624;10.106;2023-07-13T09:37:19;5.60;;;3.03;;
4921;SDS011;16625;53.624;10.106;2023-07-13T09:39:47;12.10;;;3.40;;
4921;SDS011;16625;53.624;10.106;2023-07-13T09:42:18;8.60;;;2.93;;
4921;SDS011;16625;53.624;10.106;2023-07-13T09:44:53;7.07;;;2.60;;
4921;SDS011;16625;53.624;10.106;2023-07-13T09:47:23;12.40;;;3.07;;
4921;SDS011;16625;53.624;10.106;2023-07-13T09:49:57;7.83;;;2.70;;
4921;SDS011;16625;53.624;10.106;2023-07-13T09:52:25;10.40;;;2.97;;
4921;SDS011;16625;53.624;10.106;2023-07-13T09:54:53;6.60;;;3.17;;
4921;SDS011;16625;53.624;10.106;2023-07-13T09:57:24;6.57;;;2.70;;
4921;SDS011;16625;53.624;10.106;2023-07-13T09:59:53;13.30;;;2.90;;
4921;SDS011;16625;53.624;10.106;2023-07-13T10:02:24;11.40;;;3.50;;
4921;SDS011;16625;53.624;10.106;2023-07-13T10:04:58;11.43;;;2.77;;
4921;SDS011;16625;53.624;10.106;2023-07-13T10:07:26;11.80;;;3.10;;
4921;SDS011;16625;53.624;10.106;2023-07-13T10:09:54;4.33;;;2.57;;
4921;SDS011;16625;53.624;10.106;2023-07-13T10:12:22;5.70;;;2.70;;
4921;SDS011;16625;53.624;10.106;2023-07-13T10:14:50;8.77;;;2.55;;
4921;SDS011;16625;53.624;10.106;2023-07-13T10:17:26;5.20;;;2.65;;
4921;SDS011;16625;53.624;10.106;2023-07-13T10:19:59;9.17;;;3.40;;
4921;SDS011;16625;53.624;10.106;2023-07-13T10:22:31;6.25;;;2.53;;
4921;SDS011;16625;53.624;10.106;2023-07-13T10:25:08;10.15;;;3.83;;
4921;SDS011;16625;53.624;10.106;2023-07-13T10:27:44;9.02;;;2.80;;
4921;SDS011;16625;53.624;10.106;2023-07-13T10:30:13;5.57;;;2.53;;
4921;SDS011;16625;53.624;10.106;2023-07-13T10:32:44;6.18;;;2.50;;
4921;SDS011;16625;53.624;10.106;2023-07-13T10:35:14;6.97;;;3.03;;
4921;SDS011;16625;53.624;10.106;2023-07-13T10:37:44;12.63;;;3.47;;
4921;SDS011;16625;53.624;10.106;2023-07-13T10:40:16;7.25;;;2.85;;
4921;SDS011;16625;53.624;10.106;2023-07-13T10:42:48;5.72;;;2.60;;
4921;SDS011;16625;53.624;10.106;2023-07-13T10:45:19;8.82;;;3.20;;
4921;SDS011;16625;53.624;10.106;2023-07-13T10:47:47;7.43;;;2.90;;
4921;SDS011;16625;53.624;10.106;2023-07-13T10:50:19;6.25;;;2.85;;
4921;SDS011;16625;53.624;10.106;2023-07-13T10:52:48;7.93;;;2.75;;
4921;SDS011;16625;53.624;10.106;2023-07-13T10:55:35;7.88;;;2.80;;
4921;SDS011;16625;53.624;10.106;2023-07-13T10:58:11;11.13;;;2.50;;
4921;SDS011;16625;53.624;10.106;2023-07-13T11:00:43;5.65;;;2.30;;
4921;SDS011;16625;53.624;10.106;2023-07-13T11:03:15;6.75;;;3.05;;
4921;SDS011;16625;53.624;10.106;2023-07-13T11:05:46;5.47;;;3.03;;
4921;SDS011;16625;53.624;10.106;2023-07-13T11:08:16;4.38;;;3.22;;
4921;SDS011;16625;53.624;10.106;2023-07-13T11:10:49;9.90;;;3.35;;
4921;SDS011;16625;53.624;10.106;2023-07-13T11:13:37;5.78;;;2.45;;
4921;SDS011;16625;53.624;10.106;2023-07-13T11:16:34;5.88;;;2.38;;
4921;SDS011;16625;53.624;10.106;2023-07-13T11:19:25;3.22;;;2.13;;
4921;SDS011;16625;53.624;10.106;2023-07-13T11:22:15;4.40;;;2.13;;
4921;SDS011;16625;53.624;10.106;2023-07-13T11:24:48;4.82;;;2.10;;
4921;SDS011;16625;53.624;10.106;2023-07-13T11:27:24;6.13;;;2.50;;
4921;SDS011;16625;53.624;10.106;2023-07-13T11:32:50;5.93;;;2.30;;
4921;SDS011;16625;53.624;10.106;2023-07-13T11:35:30;5.68;;;2.47;;
4921;SDS011;16625;53.624;10.106;2023-07-13T11:38:01;4.78;;;2.40;;
4921;SDS011;16625;53.624;10.106;2023-07-13T11:40:28;5.68;;;2.50;;
4921;SDS011;16625;53.624;10.106;2023-07-13T11:42:58;6.70;;;3.45;;
4921;SDS011;16625;53.624;10.106;2023-07-13T11:45:26;10.55;;;2.60;;
4921;SDS011;16625;53.624;10.106;2023-07-13T11:47:53;4.00;;;2.83;;
4921;SDS011;16625;53.624;10.106;2023-07-13T11:50:22;6.43;;;2.42;;
4921;SDS011;16625;53.624;10.106;2023-07-13T11:52:50;4.35;;;2.20;;
4921;SDS011;16625;53.624;10.106;2023-07-13T11:55:22;5.22;;;2.33;;
4921;SDS011;16625;53.624;10.106;2023-07-13T11:57:50;9.43;;;2.60;;
4921;SDS011;16625;53.624;10.106;2023-07-13T12:00:23;8.32;;;2.85;;
4921;SDS011;16625;53.624;10.106;2023-07-13T12:02:55;10.07;;;3.20;;
4921;SDS011;16625;53.624;10.106;2023-07-13T12:05:25;6.00;;;2.20;;
4921;SDS011;16625;53.624;10.106;2023-07-13T12:07:53;6.53;;;2.08;;
4921;SDS011;16625;53.624;10.106;2023-07-13T12:10:22;4.30;;;2.38;;
4921;SDS011;16625;53.624;10.106;2023-07-13T12:12:54;5.25;;;2.40;;
4921;SDS011;16625;53.624;10.106;2023-07-13T12:15:23;4.70;;;2.30;;
4921;SDS011;16625;53.624;10.106;2023-07-13T12:17:54;4.07;;;2.23;;
4921;SDS011;16625;53.624;10.106;2023-07-13T12:20:23;5.57;;;2.23;;
4921;SDS011;16625;53.624;10.106;2023-07-13T12:22:52;5.50;;;2.40;;
4921;SDS011;16625;53.624;10.106;2023-07-13T13:31:37;4.00;;;2.50;;
4921;SDS011;16625;53.624;10.106;2023-07-13T13:34:04;4.93;;;2.77;;
4921;SDS011;16625;53.624;10.106;2023-07-13T13:36:36;4.40;;;2.80;;
4921;SDS011;16625;53.624;10.106;2023-07-13T13:39:07;3.90;;;2.60;;
4921;SDS011;16625;53.624;10.106;2023-07-13T13:41:50;3.20;;;2.20;;
4921;SDS011;16625;53.624;10.106;2023-07-13T13:44:19;5.10;;;2.50;;
4921;SDS011;16625;53.624;10.106;2023-07-13T13:47:14;3.00;;;2.23;;
4921;SDS011;16625;53.624;10.106;2023-07-13T13:49:53;2.90;;;2.13;;
4921;SDS011;16625;53.624;10.106;2023-07-13T13:52:20;5.47;;;2.13;;
4921;SDS011;16625;53.624;10.106;2023-07-13T13:54:47;4.63;;;2.37;;
4921;SDS011;16625;53.624;10.106;2023-07-13T13:57:14;6.70;;;2.27;;
4921;SDS011;16625;53.624;10.106;2023-07-13T16:02:00;6.53;;;2.50;;
4921;SDS011;16625;53.624;10.106;2023-07-13T16:04:32;4.47;;;2.53;;
4921;SDS011;16625;53.624;10.106;2023-07-13T16:06:59;6.30;;;2.77;;
4921;SDS011;16625;53.624;10.106;2023-07-13T16:09:26;3.80;;;2.33;;
4921;SDS011;16625;53.624;10.106;2023-07-13T16:11:53;4.10;;;2.27;;
4921;SDS011;16625;53.624;10.106;2023-07-13T16:14:22;6.83;;;2.63;;
4921;SDS011;16625;53.624;10.106;2023-07-13T16:16:50;5.70;;;2.87;;
4921;SDS011;16625;53.624;10.106;2023-07-13T16:19:21;3.43;;;2.53;;
4921;SDS011;16625;53.624;10.106;2023-07-13T16:21:53;2.67;;;2.27;;
4921;SDS011;16625;53.624;10.106;2023-07-13T16:24:21;3.70;;;2.57;;
4921;SDS011;16625;53.624;10.106;2023-07-13T16:26:50;4.50;;;2.60;;
4921;SDS011;16625;53.624;10.106;2023-07-13T16:29:21;4.30;;;2.10;;
4921;SDS011;16625;53.624;10.106;2023-07-13T16:31:56;4.70;;;2.33;;
4921;SDS011;16625;53.624;10.106;2023-07-13T16:34:27;5.20;;;2.40;;
4921;SDS011;16625;53.624;10.106;2023-07-13T16:36:54;7.70;;;2.47;;
4921;SDS011;16625;53.624;10.106;2023-07-13T16:39:21;5.73;;;2.33;;
4921;SDS011;16625;53.624;10.106;2023-07-13T16:41:51;4.93;;;2.13;;
4921;SDS011;16625;53.624;10.106;2023-07-13T16:44:19;5.50;;;2.07;;
4921;SDS011;16625;53.624;10.106;2023-07-13T16:46:48;4.03;;;2.23;;
4921;SDS011;16625;53.624;10.106;2023-07-13T16:49:25;2.60;;;1.60;;
4921;SDS011;16625;53.624;10.106;2023-07-13T16:51:55;5.57;;;2.20;;
4921;SDS011;16625;53.624;10.106;2023-07-13T16:54:27;4.80;;;2.20;;
4921;SDS011;16625;53.624;10.106;2023-07-13T16:56:56;6.33;;;2.50;;
4921;SDS011;16625;53.624;10.106;2023-07-13T16:59:24;3.17;;;1.90;;
4921;SDS011;16625;53.624;10.106;2023-07-13T17:01:56;3.60;;;1.90;;
4921;SDS011;16625;53.624;10.106;2023-07-13T20:20:55;6.10;;;2.87;;
4921;SDS011;16625;53.624;10.106;2023-07-13T20:23:24;8.13;;;3.50;;
4921;SDS011;16625;53.624;10.106;2023-07-13T20:25:53;4.30;;;2.60;;
4921;SDS011;16625;53.624;10.106;2023-07-13T20:28:26;11.83;;;3.37;;
4921;SDS011;16625;53.624;10.106;2023-07-13T20:30:53;4.70;;;2.80;;
4921;SDS011;16625;53.624;10.106;2023-07-13T20:33:22;4.33;;;2.73;;
4921;SDS011;16625;53.624;10.106;2023-07-13T20:35:52;7.33;;;2.80;;
4921;SDS011;16625;53.624;10.106;2023-07-13T20:38:21;11.30;;;3.50;;
4921;SDS011;16625;53.624;10.106;2023-07-13T20:40:49;8.50;;;3.00;;
4921;SDS011;16625;53.624;10.106;2023-07-13T20:43:17;3.40;;;2.73;;
4921;SDS011;16625;53.624;10.106;2023-07-13T20:45:44;5.70;;;3.20;;
4921;SDS011;16625;53.624;10.106;2023-07-13T20:48:22;3.47;;;2.63;;
4921;SDS011;16625;53.624;10.106;2023-07-13T20:50:55;3.33;;;2.70;;
4921;SDS011;16625;53.624;10.106;2023-07-13T20:53:24;3.53;;;2.40;;
4921;SDS011;16625;53.624;10.106;2023-07-13T20:55:52;3.73;;;2.37;;
4921;SDS011;16625;53.624;10.106;2023-07-13T20:58:19;3.73;;;2.60;;
4921;SDS011;16625;53.624;10.106;2023-07-13T21:00:46;3.47;;;2.50;;
4921;SDS011;16625;53.624;10.106;2023-07-13T21:03:16;4.03;;;2.20;;
4921;SDS011;16625;53.624;10.106;2023-07-13T21:05:46;4.03;;;2.70;;
4921;SDS011;16625;53.624;10.106;2023-07-13T21:08:14;3.97;;;2.83;;
4921;SDS011;16625;53.624;10.106;2023-07-13T21:10:44;4.10;;;2.70;;
4921;SDS011;16625;53.624;10.106;2023-07-13T21:13:13;6.90;;;3.33;;
4921;SDS011;16625;53.624;10.106;2023-07-13T21:15:41;4.37;;;2.90;;
4921;SDS011;16625;53.624;10.106;2023-07-13T21:18:14;3.57;;;2.40;;
4921;SDS011;16625;53.624;10.106;2023-07-13T21:20:45;3.80;;;2.63;;
4921;SDS011;16625;53.624;10.106;2023-07-13T21:23:26;5.37;;;2.90;;
4921;SDS011;16625;53.624;10.106;2023-07-13T21:25:55;4.80;;;2.80;;